VTK609 USTR-UTAA
Flight info
| Callsign | VTK609 |
|---|---|
| Flight time | 3h 0m |
| Altitude | 39000 |
| Route | KEGIR1Q KEGIR L165 OSGAN/K0880F380 L165 EKSOZ/K0893F390 L165 INKUM/K0876F380 N167 ADOBI/N0473F380 B359 PODOK POD29A |
| Aircraft | B772/H-SDE2E3FGHIJ5LORVWXY/LB1D1 |
Departure
| Time | 2026-05-01 07:56 |
|---|---|
| Airport | Roshchino International Airport (USTR) |
Arrival
| Time | 2026-05-01 10:56 |
|---|---|
| Airport | Ashgabat International Airport (UTAA) |
| Time | Latitude | Longitude | Altitude | Speed | Heading |
|---|---|---|---|---|---|
| 2026-05-01 07:31 | 57.18228 | 65.34494 | 356 ft | 0 kts | 225° |
| 2026-05-01 07:38 | 57.18228 | 65.34495 | 317 ft | 0 kts | 225° |
| 2026-05-01 07:40 | 57.18229 | 65.34495 | 317 ft | 0 kts | 225° |
| 2026-05-01 07:43 | 57.18225 | 65.34488 | 359 ft | 4 kts | 225° |
| 2026-05-01 07:44 | 57.18242 | 65.34298 | 353 ft | 13 kts | 314° |
| 2026-05-01 07:44 | 57.18364 | 65.34071 | 352 ft | 16 kts | 315° |
| 2026-05-01 07:45 | 57.18475 | 65.33867 | 349 ft | 18 kts | 314° |
| 2026-05-01 07:45 | 57.18534 | 65.33756 | 350 ft | 15 kts | 314° |
| 2026-05-01 07:45 | 57.18592 | 65.33648 | 351 ft | 9 kts | 315° |
| 2026-05-01 07:45 | 57.18619 | 65.33555 | 349 ft | 9 kts | 278° |
| 2026-05-01 07:46 | 57.18620 | 65.33425 | 344 ft | 8 kts | 270° |
| 2026-05-01 07:46 | 57.18603 | 65.33337 | 351 ft | 9 kts | 232° |
| 2026-05-01 07:46 | 57.18490 | 65.33107 | 333 ft | 11 kts | 236° |
| 2026-05-01 07:47 | 57.18476 | 65.32965 | 336 ft | 11 kts | 267° |
| 2026-05-01 07:47 | 57.18473 | 65.32818 | 332 ft | 11 kts | 268° |
| 2026-05-01 07:47 | 57.18470 | 65.32668 | 332 ft | 12 kts | 268° |
| 2026-05-01 07:47 | 57.18467 | 65.32513 | 332 ft | 12 kts | 268° |
| 2026-05-01 07:48 | 57.18463 | 65.32205 | 338 ft | 12 kts | 269° |
| 2026-05-01 07:48 | 57.18461 | 65.32050 | 349 ft | 12 kts | 269° |
| 2026-05-01 07:48 | 57.18457 | 65.31895 | 355 ft | 12 kts | 267° |
| 2026-05-01 07:49 | 57.18446 | 65.31756 | 356 ft | 11 kts | 245° |
| 2026-05-01 07:49 | 57.18328 | 65.31502 | 364 ft | 18 kts | 228° |
| 2026-05-01 07:49 | 57.18233 | 65.31308 | 370 ft | 23 kts | 227° |
| 2026-05-01 07:50 | 57.18118 | 65.31075 | 373 ft | 25 kts | 227° |
| 2026-05-01 07:50 | 57.17884 | 65.30600 | 380 ft | 25 kts | 227° |
| 2026-05-01 07:50 | 57.17766 | 65.30362 | 383 ft | 25 kts | 227° |
| 2026-05-01 07:51 | 57.17647 | 65.30123 | 386 ft | 25 kts | 227° |
| 2026-05-01 07:51 | 57.17529 | 65.29884 | 388 ft | 25 kts | 228° |
| 2026-05-01 07:51 | 57.17413 | 65.29648 | 390 ft | 25 kts | 227° |
| 2026-05-01 07:52 | 57.17178 | 65.29171 | 392 ft | 25 kts | 228° |
| 2026-05-01 07:52 | 57.17063 | 65.28936 | 391 ft | 22 kts | 227° |
| 2026-05-01 07:52 | 57.16964 | 65.28737 | 390 ft | 21 kts | 227° |
| 2026-05-01 07:53 | 57.16859 | 65.28503 | 389 ft | 7 kts | 258° |
| 2026-05-01 07:53 | 57.16866 | 65.28413 | 388 ft | 7 kts | 284° |
| 2026-05-01 07:53 | 57.16880 | 65.28326 | 388 ft | 7 kts | 287° |
| 2026-05-01 07:53 | 57.16894 | 65.28240 | 386 ft | 7 kts | 287° |
| 2026-05-01 07:54 | 57.16944 | 65.28174 | 385 ft | 3 kts | 32° |
| 2026-05-01 07:55 | 57.16964 | 65.28204 | 385 ft | 0 kts | 44° |
| 2026-05-01 07:55 | 57.17062 | 65.28399 | 388 ft | 50 kts | 47° |
| 2026-05-01 07:56 | 57.18807 | 65.32028 | 1319 ft | 154 kts | 46° |
| 2026-05-01 07:56 | 57.20189 | 65.34814 | 2692 ft | 159 kts | 51° |
| 2026-05-01 07:57 | 57.20986 | 65.36426 | 2870 ft | 181 kts | 51° |
| 2026-05-01 07:57 | 57.22893 | 65.40265 | 3374 ft | 221 kts | 51° |
| 2026-05-01 07:58 | 57.25059 | 65.44649 | 4465 ft | 240 kts | 52° |
| 2026-05-01 07:58 | 57.26483 | 65.49985 | 5452 ft | 238 kts | 94° |
| 2026-05-01 07:59 | 57.25571 | 65.55923 | 6597 ft | 245 kts | 115° |
| 2026-05-01 07:59 | 57.24140 | 65.61780 | 7705 ft | 255 kts | 115° |
| 2026-05-01 08:00 | 57.20683 | 65.73611 | 9503 ft | 268 kts | 150° |
| 2026-05-01 08:01 | 57.15160 | 65.73165 | 10285 ft | 306 kts | 207° |
| 2026-05-01 08:01 | 57.13242 | 65.71138 | 10496 ft | 324 kts | 208° |
| 2026-05-01 08:01 | 57.11283 | 65.69038 | 11037 ft | 333 kts | 209° |
| 2026-05-01 08:02 | 57.07202 | 65.64686 | 12575 ft | 342 kts | 209° |
| 2026-05-01 08:02 | 57.05126 | 65.62498 | 13505 ft | 345 kts | 209° |
| 2026-05-01 08:03 | 57.00950 | 65.58136 | 15092 ft | 350 kts | 209° |
| 2026-05-01 08:03 | 56.98816 | 65.55922 | 15930 ft | 353 kts | 209° |
| 2026-05-01 08:03 | 56.94483 | 65.51441 | 17505 ft | 360 kts | 208° |
| 2026-05-01 08:04 | 56.90072 | 65.46896 | 19116 ft | 367 kts | 208° |
| 2026-05-01 08:04 | 56.85613 | 65.42310 | 20682 ft | 372 kts | 208° |
| 2026-05-01 08:05 | 56.81049 | 65.37632 | 22145 ft | 378 kts | 207° |
| 2026-05-01 08:05 | 56.78725 | 65.35368 | 22796 ft | 378 kts | 202° |
| 2026-05-01 08:05 | 56.76194 | 65.34122 | 23291 ft | 385 kts | 187° |
| 2026-05-01 08:06 | 56.70804 | 65.34307 | 24541 ft | 388 kts | 179° |
| 2026-05-01 08:06 | 56.65382 | 65.34727 | 25690 ft | 393 kts | 180° |
| 2026-05-01 08:07 | 56.59865 | 65.35092 | 26755 ft | 398 kts | 180° |
| 2026-05-01 08:07 | 56.54315 | 65.35436 | 27881 ft | 398 kts | 180° |
| 2026-05-01 08:08 | 56.51578 | 65.35603 | 28413 ft | 399 kts | 180° |
| 2026-05-01 08:08 | 56.45978 | 65.35932 | 29259 ft | 404 kts | 180° |
| 2026-05-01 08:09 | 56.40322 | 65.36245 | 30003 ft | 408 kts | 180° |
| 2026-05-01 08:09 | 56.37512 | 65.36401 | 30311 ft | 410 kts | 180° |
| 2026-05-01 08:09 | 56.34640 | 65.36561 | 30618 ft | 411 kts | 180° |
| 2026-05-01 08:10 | 56.28890 | 65.36882 | 31192 ft | 413 kts | 181° |
| 2026-05-01 08:10 | 56.23184 | 65.37202 | 31944 ft | 409 kts | 180° |
| 2026-05-01 08:11 | 56.17520 | 65.37516 | 32556 ft | 409 kts | 181° |
| 2026-05-01 08:11 | 56.11836 | 65.37849 | 33263 ft | 406 kts | 180° |
| 2026-05-01 08:12 | 56.06223 | 65.38198 | 33940 ft | 404 kts | 180° |
| 2026-05-01 08:12 | 56.03385 | 65.38372 | 34110 ft | 407 kts | 180° |
| 2026-05-01 08:12 | 55.97722 | 65.38712 | 34473 ft | 410 kts | 180° |
| 2026-05-01 08:13 | 55.94862 | 65.38879 | 34692 ft | 411 kts | 180° |
| 2026-05-01 08:13 | 55.91987 | 65.39048 | 34881 ft | 413 kts | 180° |
| 2026-05-01 08:13 | 55.86250 | 65.39378 | 35280 ft | 415 kts | 180° |
| 2026-05-01 08:14 | 55.83354 | 65.39538 | 35482 ft | 416 kts | 180° |
| 2026-05-01 08:14 | 55.80450 | 65.39697 | 35682 ft | 417 kts | 180° |
| 2026-05-01 08:14 | 55.77560 | 65.39855 | 35870 ft | 419 kts | 180° |
| 2026-05-01 08:14 | 55.74645 | 65.40014 | 36054 ft | 420 kts | 180° |
| 2026-05-01 08:15 | 55.71711 | 65.40176 | 36250 ft | 421 kts | 180° |
| 2026-05-01 08:15 | 55.65834 | 65.40498 | 36573 ft | 423 kts | 180° |
| 2026-05-01 08:16 | 55.59906 | 65.40823 | 36695 ft | 427 kts | 180° |
| 2026-05-01 08:16 | 55.54007 | 65.41146 | 36709 ft | 423 kts | 180° |
| 2026-05-01 08:17 | 55.48187 | 65.40198 | 36716 ft | 418 kts | 194° |
| 2026-05-01 08:17 | 55.42726 | 65.36785 | 36710 ft | 421 kts | 206° |
| 2026-05-01 08:18 | 55.37628 | 65.31591 | 36718 ft | 423 kts | 208° |
| 2026-05-01 08:19 | 55.27400 | 65.21119 | 36720 ft | 427 kts | 208° |
| 2026-05-01 08:19 | 55.22269 | 65.15949 | 36718 ft | 428 kts | 208° |
| 2026-05-01 08:20 | 55.17098 | 65.10759 | 36717 ft | 428 kts | 208° |
| 2026-05-01 08:20 | 55.11946 | 65.05602 | 36725 ft | 428 kts | 208° |
| 2026-05-01 08:21 | 55.06758 | 65.00423 | 36721 ft | 429 kts | 208° |
| 2026-05-01 08:21 | 55.01592 | 64.95280 | 36714 ft | 428 kts | 208° |
| 2026-05-01 08:22 | 54.96446 | 64.90157 | 36724 ft | 428 kts | 208° |
| 2026-05-01 08:22 | 54.93848 | 64.87557 | 36893 ft | 430 kts | 208° |
| 2026-05-01 08:22 | 54.91236 | 64.84942 | 37129 ft | 429 kts | 208° |
| 2026-05-01 08:22 | 54.88683 | 64.82389 | 37361 ft | 429 kts | 208° |
| 2026-05-01 08:23 | 54.86093 | 64.79804 | 37577 ft | 429 kts | 208° |
| 2026-05-01 08:23 | 54.83484 | 64.77206 | 37678 ft | 432 kts | 208° |
| 2026-05-01 08:23 | 54.80864 | 64.74600 | 37709 ft | 434 kts | 208° |
| 2026-05-01 08:24 | 54.75646 | 64.69424 | 37705 ft | 432 kts | 208° |
| 2026-05-01 08:24 | 54.70435 | 64.64270 | 37706 ft | 429 kts | 208° |
| 2026-05-01 08:25 | 54.65285 | 64.59193 | 37718 ft | 426 kts | 208° |
| 2026-05-01 08:25 | 54.60134 | 64.54130 | 37718 ft | 428 kts | 208° |
| 2026-05-01 08:26 | 54.54956 | 64.49055 | 37719 ft | 429 kts | 208° |
| 2026-05-01 08:26 | 54.49731 | 64.43949 | 37715 ft | 431 kts | 208° |
| 2026-05-01 08:27 | 54.44520 | 64.38870 | 37708 ft | 432 kts | 208° |
| 2026-05-01 08:27 | 54.39272 | 64.33768 | 37704 ft | 433 kts | 208° |
| 2026-05-01 08:28 | 54.34026 | 64.28713 | 37713 ft | 433 kts | 207° |
| 2026-05-01 08:28 | 54.28501 | 64.24678 | 37704 ft | 432 kts | 200° |
| 2026-05-01 08:29 | 54.22848 | 64.21127 | 37721 ft | 432 kts | 200° |
| 2026-05-01 08:29 | 54.17239 | 64.17558 | 37704 ft | 432 kts | 200° |
| 2026-05-01 08:30 | 54.12545 | 64.14569 | 37704 ft | 432 kts | 200° |
| 2026-05-01 08:30 | 54.05991 | 64.10407 | 37706 ft | 431 kts | 200° |
| 2026-05-01 08:31 | 54.00380 | 64.06856 | 37704 ft | 431 kts | 200° |
| 2026-05-01 08:31 | 53.95697 | 64.03901 | 37698 ft | 431 kts | 200° |
| 2026-05-01 08:32 | 53.90046 | 64.00344 | 37711 ft | 431 kts | 200° |
| 2026-05-01 08:32 | 53.84436 | 63.96824 | 37710 ft | 432 kts | 200° |
| 2026-05-01 08:33 | 53.78799 | 63.93296 | 37708 ft | 433 kts | 200° |
| 2026-05-01 08:33 | 53.73121 | 63.89753 | 37702 ft | 434 kts | 200° |
| 2026-05-01 08:34 | 53.67475 | 63.86240 | 37701 ft | 434 kts | 200° |
| 2026-05-01 08:34 | 53.61772 | 63.82702 | 37700 ft | 434 kts | 200° |
| 2026-05-01 08:35 | 53.56137 | 63.79216 | 37696 ft | 434 kts | 200° |
| 2026-05-01 08:35 | 53.50463 | 63.75716 | 37705 ft | 434 kts | 200° |
| 2026-05-01 08:36 | 53.44773 | 63.72215 | 37710 ft | 436 kts | 200° |
| 2026-05-01 08:36 | 53.39079 | 63.68722 | 37692 ft | 437 kts | 200° |
| 2026-05-01 08:37 | 53.33358 | 63.65223 | 37687 ft | 435 kts | 200° |
| 2026-05-01 08:37 | 53.27663 | 63.61748 | 37685 ft | 434 kts | 200° |
| 2026-05-01 08:38 | 53.22000 | 63.58304 | 37691 ft | 433 kts | 200° |
| 2026-05-01 08:38 | 53.16167 | 63.55673 | 37715 ft | 435 kts | 191° |
| 2026-05-01 08:39 | 53.10174 | 63.54338 | 37706 ft | 437 kts | 189° |
| 2026-05-01 08:39 | 53.04136 | 63.53006 | 37668 ft | 438 kts | 189° |
| 2026-05-01 08:40 | 52.95082 | 63.50973 | 37703 ft | 437 kts | 189° |
| 2026-05-01 08:40 | 52.89037 | 63.49615 | 37707 ft | 436 kts | 189° |
| 2026-05-01 08:41 | 52.83038 | 63.48272 | 37710 ft | 437 kts | 189° |
| 2026-05-01 08:41 | 52.77037 | 63.46933 | 37726 ft | 437 kts | 189° |
| 2026-05-01 08:42 | 52.71027 | 63.45596 | 37724 ft | 436 kts | 189° |
| 2026-05-01 08:42 | 52.65007 | 63.44260 | 37728 ft | 436 kts | 189° |
| 2026-05-01 08:43 | 52.58974 | 63.42925 | 37717 ft | 436 kts | 189° |
| 2026-05-01 08:43 | 52.52989 | 63.41604 | 37732 ft | 436 kts | 189° |
| 2026-05-01 08:44 | 52.46976 | 63.40281 | 37699 ft | 436 kts | 189° |
| 2026-05-01 08:44 | 52.40976 | 63.38964 | 37733 ft | 436 kts | 189° |
| 2026-05-01 08:45 | 52.34936 | 63.37642 | 37740 ft | 436 kts | 189° |
| 2026-05-01 08:45 | 52.28942 | 63.36333 | 37739 ft | 437 kts | 189° |
| 2026-05-01 08:46 | 52.22887 | 63.35015 | 37761 ft | 439 kts | 189° |
| 2026-05-01 08:46 | 52.16808 | 63.33750 | 37731 ft | 439 kts | 189° |
| 2026-05-01 08:47 | 52.10759 | 63.32557 | 37752 ft | 439 kts | 189° |
| 2026-05-01 08:47 | 52.04708 | 63.31364 | 37759 ft | 439 kts | 189° |
| 2026-05-01 08:48 | 51.98629 | 63.30160 | 37763 ft | 439 kts | 189° |
| 2026-05-01 08:48 | 51.92579 | 63.28961 | 37770 ft | 439 kts | 189° |
| 2026-05-01 08:49 | 51.86549 | 63.27768 | 37768 ft | 438 kts | 189° |
| 2026-05-01 08:49 | 51.80471 | 63.26569 | 37772 ft | 439 kts | 189° |
| 2026-05-01 08:50 | 51.74427 | 63.25381 | 37786 ft | 439 kts | 189° |
| 2026-05-01 08:50 | 51.68322 | 63.24184 | 37787 ft | 440 kts | 189° |
| 2026-05-01 08:51 | 51.62238 | 63.22994 | 37758 ft | 441 kts | 189° |
| 2026-05-01 08:51 | 51.56173 | 63.21812 | 37785 ft | 441 kts | 189° |
| 2026-05-01 08:52 | 51.50113 | 63.20633 | 37798 ft | 441 kts | 189° |
| 2026-05-01 08:52 | 51.43998 | 63.19447 | 37799 ft | 441 kts | 189° |
| 2026-05-01 08:53 | 51.37930 | 63.18273 | 37824 ft | 441 kts | 189° |
| 2026-05-01 08:53 | 51.31824 | 63.17095 | 37806 ft | 441 kts | 189° |
| 2026-05-01 08:54 | 51.25724 | 63.15920 | 37816 ft | 441 kts | 189° |
| 2026-05-01 08:54 | 51.19645 | 63.14753 | 37831 ft | 441 kts | 189° |
| 2026-05-01 08:55 | 51.13528 | 63.13582 | 37833 ft | 441 kts | 189° |
| 2026-05-01 08:55 | 51.07435 | 63.12419 | 37808 ft | 441 kts | 189° |
| 2026-05-01 08:56 | 51.01360 | 63.11261 | 37839 ft | 441 kts | 189° |
| 2026-05-01 08:56 | 50.95256 | 63.10101 | 37859 ft | 442 kts | 189° |
| 2026-05-01 08:57 | 50.89146 | 63.08942 | 37852 ft | 444 kts | 189° |
| 2026-05-01 08:57 | 50.83026 | 63.07784 | 37853 ft | 444 kts | 189° |
| 2026-05-01 08:58 | 50.76890 | 63.06627 | 37857 ft | 445 kts | 189° |
| 2026-05-01 08:58 | 50.70714 | 63.05465 | 37865 ft | 445 kts | 189° |
| 2026-05-01 08:59 | 50.64589 | 63.04316 | 37866 ft | 445 kts | 189° |
| 2026-05-01 08:59 | 50.58443 | 63.03165 | 37866 ft | 444 kts | 189° |
| 2026-05-01 09:00 | 50.52316 | 63.02020 | 37869 ft | 445 kts | 190° |
| 2026-05-01 09:00 | 50.46129 | 63.00868 | 37886 ft | 447 kts | 190° |
| 2026-05-01 09:01 | 50.39938 | 62.99718 | 37886 ft | 450 kts | 190° |
| 2026-05-01 09:01 | 50.33729 | 62.98572 | 37889 ft | 452 kts | 189° |
| 2026-05-01 09:02 | 50.27485 | 62.97426 | 37851 ft | 453 kts | 189° |
| 2026-05-01 09:02 | 50.21218 | 62.96279 | 37882 ft | 450 kts | 189° |
| 2026-05-01 09:03 | 50.15034 | 62.95148 | 37893 ft | 449 kts | 190° |
| 2026-05-01 09:03 | 50.08824 | 62.94014 | 37908 ft | 448 kts | 191° |
| 2026-05-01 09:04 | 50.02642 | 62.92890 | 37902 ft | 448 kts | 191° |
| 2026-05-01 09:04 | 49.96477 | 62.91773 | 37903 ft | 448 kts | 190° |
| 2026-05-01 09:05 | 49.90264 | 62.90650 | 37913 ft | 449 kts | 190° |
| 2026-05-01 09:05 | 49.84068 | 62.89532 | 37915 ft | 450 kts | 190° |
| 2026-05-01 09:06 | 49.77817 | 62.88407 | 37913 ft | 450 kts | 191° |
| 2026-05-01 09:06 | 49.71599 | 62.87292 | 37900 ft | 450 kts | 190° |
| 2026-05-01 09:07 | 49.65389 | 62.86178 | 37939 ft | 450 kts | 191° |
| 2026-05-01 09:07 | 49.59180 | 62.85071 | 37918 ft | 450 kts | 191° |
| 2026-05-01 09:08 | 49.52947 | 62.83962 | 37935 ft | 449 kts | 191° |
| 2026-05-01 09:08 | 49.46760 | 62.82863 | 37913 ft | 449 kts | 191° |
| 2026-05-01 09:09 | 49.40544 | 62.81762 | 37921 ft | 449 kts | 191° |
| 2026-05-01 09:09 | 49.34350 | 62.80666 | 37939 ft | 450 kts | 191° |
| 2026-05-01 09:10 | 49.28151 | 62.79574 | 37955 ft | 450 kts | 191° |
| 2026-05-01 09:10 | 49.21909 | 62.78476 | 37917 ft | 450 kts | 191° |
| 2026-05-01 09:11 | 49.15709 | 62.77388 | 37940 ft | 449 kts | 191° |
| 2026-05-01 09:11 | 49.09504 | 62.76303 | 37942 ft | 448 kts | 191° |
| 2026-05-01 09:12 | 49.03308 | 62.75222 | 37955 ft | 448 kts | 191° |
| 2026-05-01 09:12 | 48.97130 | 62.74146 | 37908 ft | 448 kts | 191° |
| 2026-05-01 09:13 | 48.90913 | 62.73066 | 37946 ft | 448 kts | 191° |
| 2026-05-01 09:13 | 48.84743 | 62.71999 | 37969 ft | 448 kts | 191° |
| 2026-05-01 09:14 | 48.78561 | 62.70930 | 37955 ft | 448 kts | 191° |
| 2026-05-01 09:14 | 48.72347 | 62.69858 | 37926 ft | 447 kts | 191° |
| 2026-05-01 09:15 | 48.66195 | 62.68800 | 37947 ft | 447 kts | 191° |
| 2026-05-01 09:15 | 48.60013 | 62.67701 | 37965 ft | 446 kts | 192° |
| 2026-05-01 09:16 | 48.53872 | 62.66420 | 37958 ft | 446 kts | 193° |
| 2026-05-01 09:17 | 48.44682 | 62.64461 | 37945 ft | 446 kts | 192° |
| 2026-05-01 09:17 | 48.35451 | 62.62540 | 37967 ft | 446 kts | 192° |
| 2026-05-01 09:18 | 48.27225 | 62.60843 | 37973 ft | 447 kts | 192° |
| 2026-05-01 09:19 | 48.17997 | 62.58947 | 37974 ft | 447 kts | 192° |
| 2026-05-01 09:20 | 48.08751 | 62.57054 | 37991 ft | 447 kts | 193° |
| 2026-05-01 09:21 | 47.96432 | 62.54542 | 37956 ft | 446 kts | 192° |
| 2026-05-01 09:21 | 47.87244 | 62.52675 | 37987 ft | 445 kts | 192° |
| 2026-05-01 09:22 | 47.74936 | 62.50185 | 37996 ft | 446 kts | 192° |
| 2026-05-01 09:23 | 47.65685 | 62.48322 | 37990 ft | 447 kts | 192° |
| 2026-05-01 09:24 | 47.56446 | 62.46468 | 38004 ft | 447 kts | 192° |
| 2026-05-01 09:25 | 47.44119 | 62.44003 | 37995 ft | 447 kts | 192° |
| 2026-05-01 09:26 | 47.34863 | 62.42161 | 38011 ft | 448 kts | 192° |
| 2026-05-01 09:26 | 47.25573 | 62.40318 | 38010 ft | 448 kts | 192° |
| 2026-05-01 09:27 | 47.16312 | 62.38489 | 38015 ft | 448 kts | 192° |
| 2026-05-01 09:28 | 47.10139 | 62.37272 | 38021 ft | 448 kts | 192° |
| 2026-05-01 09:28 | 47.03947 | 62.36055 | 38022 ft | 449 kts | 192° |
| 2026-05-01 09:29 | 46.94651 | 62.34233 | 38031 ft | 449 kts | 192° |
| 2026-05-01 09:30 | 46.85363 | 62.32418 | 38024 ft | 449 kts | 192° |
| 2026-05-01 09:30 | 46.76073 | 62.30610 | 38027 ft | 450 kts | 192° |
| 2026-05-01 09:31 | 46.69902 | 62.29412 | 38025 ft | 449 kts | 191° |
| 2026-05-01 09:32 | 46.60614 | 62.27615 | 38030 ft | 448 kts | 191° |
| 2026-05-01 09:32 | 46.51309 | 62.25819 | 38037 ft | 450 kts | 192° |
| 2026-05-01 09:33 | 46.45130 | 62.24631 | 38032 ft | 449 kts | 191° |
| 2026-05-01 09:34 | 46.35821 | 62.22844 | 38043 ft | 449 kts | 191° |
| 2026-05-01 09:34 | 46.26527 | 62.21060 | 38042 ft | 449 kts | 191° |
| 2026-05-01 09:35 | 46.17235 | 62.19282 | 38042 ft | 449 kts | 191° |
| 2026-05-01 09:36 | 46.11035 | 62.18099 | 38051 ft | 449 kts | 191° |
| 2026-05-01 09:36 | 46.04829 | 62.16917 | 38045 ft | 450 kts | 191° |
| 2026-05-01 09:37 | 45.98618 | 62.15737 | 38041 ft | 450 kts | 191° |
| 2026-05-01 09:37 | 45.89359 | 62.13983 | 38050 ft | 450 kts | 191° |
| 2026-05-01 09:38 | 45.80379 | 62.10553 | 38060 ft | 444 kts | 205° |
| 2026-05-01 09:39 | 45.72136 | 62.04578 | 38056 ft | 442 kts | 210° |
| 2026-05-01 09:39 | 45.66707 | 62.00423 | 38055 ft | 443 kts | 210° |
| 2026-05-01 09:40 | 45.58559 | 61.94258 | 38060 ft | 443 kts | 210° |
| 2026-05-01 09:41 | 45.53093 | 61.90152 | 38058 ft | 444 kts | 210° |
| 2026-05-01 09:41 | 45.44892 | 61.84009 | 38062 ft | 444 kts | 210° |
| 2026-05-01 09:42 | 45.39418 | 61.79919 | 38061 ft | 444 kts | 210° |
| 2026-05-01 09:43 | 45.28454 | 61.71755 | 38072 ft | 445 kts | 210° |
| 2026-05-01 09:43 | 45.23002 | 61.67708 | 38071 ft | 445 kts | 210° |
| 2026-05-01 09:44 | 45.14767 | 61.61612 | 38072 ft | 445 kts | 210° |
| 2026-05-01 09:45 | 45.09266 | 61.57550 | 38074 ft | 446 kts | 210° |
| 2026-05-01 09:45 | 45.01001 | 61.51465 | 38080 ft | 446 kts | 209° |
| 2026-05-01 09:46 | 44.95487 | 61.47415 | 38089 ft | 446 kts | 209° |
| 2026-05-01 09:46 | 44.89972 | 61.43374 | 38079 ft | 446 kts | 209° |
| 2026-05-01 09:47 | 44.84458 | 61.39349 | 38091 ft | 447 kts | 209° |
| 2026-05-01 09:47 | 44.78933 | 61.35327 | 38098 ft | 447 kts | 209° |
| 2026-05-01 09:48 | 44.73436 | 61.31332 | 38091 ft | 447 kts | 209° |
| 2026-05-01 09:48 | 44.67903 | 61.27319 | 38082 ft | 447 kts | 209° |
| 2026-05-01 09:49 | 44.62367 | 61.23311 | 38097 ft | 448 kts | 209° |
| 2026-05-01 09:49 | 44.56827 | 61.19309 | 38107 ft | 448 kts | 209° |
| 2026-05-01 09:50 | 44.51272 | 61.15305 | 38109 ft | 449 kts | 209° |
| 2026-05-01 09:50 | 44.45711 | 61.11304 | 38109 ft | 449 kts | 209° |
| 2026-05-01 09:51 | 44.40146 | 61.07311 | 38095 ft | 449 kts | 208° |
| 2026-05-01 09:51 | 44.34396 | 61.03990 | 38115 ft | 451 kts | 201° |
| 2026-05-01 09:52 | 44.28474 | 61.01056 | 38115 ft | 452 kts | 201° |
| 2026-05-01 09:52 | 44.22553 | 60.98107 | 38116 ft | 452 kts | 202° |
| 2026-05-01 09:53 | 44.16634 | 60.95143 | 38107 ft | 452 kts | 202° |
| 2026-05-01 09:53 | 44.10721 | 60.92179 | 38114 ft | 452 kts | 202° |
| 2026-05-01 09:54 | 44.04804 | 60.89218 | 38116 ft | 452 kts | 202° |
| 2026-05-01 09:54 | 43.98868 | 60.86255 | 38117 ft | 453 kts | 202° |
| 2026-05-01 09:55 | 43.92935 | 60.83300 | 38119 ft | 453 kts | 202° |
| 2026-05-01 09:55 | 43.87003 | 60.80351 | 38115 ft | 453 kts | 201° |
| 2026-05-01 09:56 | 43.81071 | 60.77409 | 38113 ft | 453 kts | 201° |
| 2026-05-01 09:56 | 43.75165 | 60.74486 | 38118 ft | 453 kts | 201° |
| 2026-05-01 09:57 | 43.69230 | 60.71555 | 38114 ft | 453 kts | 201° |
| 2026-05-01 09:57 | 43.63290 | 60.68627 | 38116 ft | 453 kts | 201° |
| 2026-05-01 09:58 | 43.57351 | 60.65707 | 38114 ft | 454 kts | 201° |
| 2026-05-01 09:58 | 43.51393 | 60.62782 | 38111 ft | 454 kts | 201° |
| 2026-05-01 09:59 | 43.45435 | 60.59864 | 38113 ft | 454 kts | 201° |
| 2026-05-01 09:59 | 43.39475 | 60.56952 | 38106 ft | 454 kts | 201° |
| 2026-05-01 10:00 | 43.33518 | 60.54046 | 38110 ft | 454 kts | 201° |
| 2026-05-01 10:00 | 43.27561 | 60.51147 | 38117 ft | 454 kts | 201° |
| 2026-05-01 10:01 | 43.21599 | 60.48251 | 38106 ft | 455 kts | 201° |
| 2026-05-01 10:01 | 43.15633 | 60.45360 | 38114 ft | 455 kts | 201° |
| 2026-05-01 10:02 | 43.09655 | 60.42469 | 38109 ft | 456 kts | 201° |
| 2026-05-01 10:02 | 43.03669 | 60.39579 | 38110 ft | 456 kts | 201° |
| 2026-05-01 10:03 | 42.97681 | 60.36695 | 38112 ft | 457 kts | 201° |
| 2026-05-01 10:03 | 42.91690 | 60.33815 | 38107 ft | 456 kts | 201° |
| 2026-05-01 10:04 | 42.86707 | 60.31424 | 38116 ft | 456 kts | 201° |
| 2026-05-01 10:04 | 42.79735 | 60.28086 | 38113 ft | 457 kts | 201° |
| 2026-05-01 10:05 | 42.73731 | 60.25218 | 38113 ft | 457 kts | 201° |
| 2026-05-01 10:05 | 42.68702 | 60.22820 | 38108 ft | 457 kts | 201° |
| 2026-05-01 10:06 | 42.62734 | 60.19980 | 38112 ft | 457 kts | 201° |
| 2026-05-01 10:06 | 42.56739 | 60.17133 | 38114 ft | 457 kts | 201° |
| 2026-05-01 10:07 | 42.50739 | 60.14289 | 38114 ft | 456 kts | 201° |
| 2026-05-01 10:07 | 42.44740 | 60.11451 | 38111 ft | 456 kts | 201° |
| 2026-05-01 10:08 | 42.35767 | 60.07217 | 38116 ft | 456 kts | 201° |
| 2026-05-01 10:09 | 42.29776 | 60.04398 | 38117 ft | 456 kts | 201° |
| 2026-05-01 10:09 | 42.23772 | 60.01577 | 38106 ft | 456 kts | 201° |
| 2026-05-01 10:10 | 42.17777 | 59.98766 | 38124 ft | 456 kts | 201° |
| 2026-05-01 10:10 | 42.08806 | 59.94570 | 38123 ft | 457 kts | 201° |
| 2026-05-01 10:11 | 42.02798 | 59.91772 | 38114 ft | 457 kts | 201° |
| 2026-05-01 10:11 | 41.96778 | 59.89008 | 38140 ft | 457 kts | 200° |
| 2026-05-01 10:12 | 41.90752 | 59.86248 | 38140 ft | 457 kts | 200° |
| 2026-05-01 10:13 | 41.81712 | 59.82110 | 38138 ft | 457 kts | 201° |
| 2026-05-01 10:13 | 41.75677 | 59.79401 | 38132 ft | 458 kts | 198° |
| 2026-05-01 10:14 | 41.66351 | 59.76495 | 38135 ft | 459 kts | 195° |
| 2026-05-01 10:14 | 41.60117 | 59.74607 | 38133 ft | 459 kts | 195° |
| 2026-05-01 10:15 | 41.53885 | 59.72696 | 38131 ft | 459 kts | 195° |
| 2026-05-01 10:15 | 41.47649 | 59.70782 | 38142 ft | 460 kts | 195° |
| 2026-05-01 10:16 | 41.41409 | 59.68871 | 38143 ft | 460 kts | 195° |
| 2026-05-01 10:17 | 41.32116 | 59.65865 | 38140 ft | 458 kts | 199° |
| 2026-05-01 10:17 | 41.22977 | 59.62078 | 38143 ft | 459 kts | 199° |
| 2026-05-01 10:18 | 41.13824 | 59.58321 | 38129 ft | 459 kts | 199° |
| 2026-05-01 10:19 | 41.07721 | 59.55835 | 38144 ft | 458 kts | 199° |
| 2026-05-01 10:19 | 41.01614 | 59.53350 | 38148 ft | 458 kts | 199° |
| 2026-05-01 10:20 | 40.92470 | 59.49627 | 38148 ft | 459 kts | 200° |
| 2026-05-01 10:20 | 40.86363 | 59.47127 | 38148 ft | 459 kts | 200° |
| 2026-05-01 10:21 | 40.77244 | 59.43405 | 38149 ft | 459 kts | 199° |
| 2026-05-01 10:22 | 40.68083 | 59.39679 | 38138 ft | 459 kts | 200° |
| 2026-05-01 10:23 | 40.58922 | 59.35963 | 38145 ft | 459 kts | 200° |
| 2026-05-01 10:23 | 40.49756 | 59.32257 | 38130 ft | 459 kts | 200° |
| 2026-05-01 10:24 | 40.37526 | 59.27329 | 38156 ft | 459 kts | 200° |
| 2026-05-01 10:25 | 40.25323 | 59.22480 | 38139 ft | 459 kts | 200° |
| 2026-05-01 10:26 | 40.19204 | 59.20052 | 38154 ft | 459 kts | 200° |
| 2026-05-01 10:27 | 40.06982 | 59.15215 | 38110 ft | 454 kts | 200° |
| 2026-05-01 10:27 | 40.00980 | 59.12848 | 37387 ft | 446 kts | 200° |
| 2026-05-01 10:28 | 39.98022 | 59.11682 | 36973 ft | 441 kts | 200° |
| 2026-05-01 10:28 | 39.92192 | 59.09386 | 36129 ft | 434 kts | 200° |
| 2026-05-01 10:28 | 39.89317 | 59.08255 | 35697 ft | 430 kts | 200° |
| 2026-05-01 10:29 | 39.83663 | 59.06010 | 34842 ft | 425 kts | 200° |
| 2026-05-01 10:29 | 39.80844 | 59.04887 | 34436 ft | 422 kts | 200° |
| 2026-05-01 10:30 | 39.75265 | 59.02667 | 33490 ft | 417 kts | 200° |
| 2026-05-01 10:30 | 39.69753 | 59.00479 | 32584 ft | 411 kts | 199° |
| 2026-05-01 10:31 | 39.64316 | 58.98326 | 31726 ft | 405 kts | 199° |
| 2026-05-01 10:31 | 39.58952 | 58.96205 | 30874 ft | 400 kts | 199° |
| 2026-05-01 10:32 | 39.53661 | 58.94116 | 30018 ft | 395 kts | 199° |
| 2026-05-01 10:32 | 39.51035 | 58.93081 | 29528 ft | 392 kts | 199° |
| 2026-05-01 10:32 | 39.45896 | 58.91058 | 28622 ft | 385 kts | 198° |
| 2026-05-01 10:33 | 39.40814 | 58.89061 | 27729 ft | 378 kts | 198° |
| 2026-05-01 10:33 | 39.35820 | 58.87100 | 26874 ft | 372 kts | 198° |
| 2026-05-01 10:34 | 39.33351 | 58.86131 | 26459 ft | 370 kts | 198° |
| 2026-05-01 10:34 | 39.30897 | 58.85170 | 26048 ft | 367 kts | 198° |
| 2026-05-01 10:34 | 39.28458 | 58.84214 | 25625 ft | 365 kts | 198° |
| 2026-05-01 10:35 | 39.23614 | 58.82319 | 24810 ft | 362 kts | 198° |
| 2026-05-01 10:35 | 39.21210 | 58.81380 | 24412 ft | 360 kts | 198° |
| 2026-05-01 10:35 | 39.18815 | 58.80444 | 24008 ft | 359 kts | 198° |
| 2026-05-01 10:35 | 39.16422 | 58.79510 | 23561 ft | 358 kts | 198° |
| 2026-05-01 10:36 | 39.11668 | 58.77657 | 22698 ft | 354 kts | 198° |
| 2026-05-01 10:36 | 39.09316 | 58.76742 | 22295 ft | 352 kts | 198° |
| 2026-05-01 10:36 | 39.06981 | 58.75833 | 21891 ft | 349 kts | 198° |
| 2026-05-01 10:37 | 39.04669 | 58.74920 | 21503 ft | 347 kts | 199° |
| 2026-05-01 10:37 | 39.00092 | 58.73083 | 20721 ft | 342 kts | 199° |
| 2026-05-01 10:37 | 38.97821 | 58.72172 | 20342 ft | 340 kts | 199° |
| 2026-05-01 10:38 | 38.95568 | 58.71269 | 19958 ft | 338 kts | 199° |
| 2026-05-01 10:38 | 38.93354 | 58.70383 | 19580 ft | 336 kts | 199° |
| 2026-05-01 10:38 | 38.91124 | 58.69492 | 19215 ft | 335 kts | 199° |
| 2026-05-01 10:38 | 38.88901 | 58.68604 | 18833 ft | 333 kts | 199° |
| 2026-05-01 10:39 | 38.86691 | 58.67722 | 18440 ft | 332 kts | 199° |
| 2026-05-01 10:39 | 38.84488 | 58.66844 | 18003 ft | 331 kts | 199° |
| 2026-05-01 10:39 | 38.82297 | 58.65971 | 17597 ft | 329 kts | 199° |
| 2026-05-01 10:39 | 38.80116 | 58.65103 | 17214 ft | 327 kts | 199° |
| 2026-05-01 10:40 | 38.77951 | 58.64252 | 16837 ft | 323 kts | 197° |
| 2026-05-01 10:40 | 38.75750 | 58.63780 | 16458 ft | 320 kts | 186° |
| 2026-05-01 10:40 | 38.73528 | 58.63653 | 16084 ft | 319 kts | 183° |
| 2026-05-01 10:40 | 38.71305 | 58.63616 | 15678 ft | 319 kts | 182° |
| 2026-05-01 10:41 | 38.69094 | 58.63586 | 15302 ft | 317 kts | 182° |
| 2026-05-01 10:41 | 38.66891 | 58.63544 | 14925 ft | 316 kts | 183° |
| 2026-05-01 10:41 | 38.62511 | 58.63417 | 14183 ft | 313 kts | 184° |
| 2026-05-01 10:42 | 38.60336 | 58.63339 | 13794 ft | 312 kts | 184° |
| 2026-05-01 10:42 | 38.58169 | 58.63255 | 13390 ft | 311 kts | 184° |
| 2026-05-01 10:42 | 38.56012 | 58.63169 | 12997 ft | 309 kts | 184° |
| 2026-05-01 10:42 | 38.53897 | 58.63082 | 12623 ft | 307 kts | 184° |
| 2026-05-01 10:43 | 38.51766 | 58.62993 | 12257 ft | 305 kts | 184° |
| 2026-05-01 10:43 | 38.49651 | 58.62904 | 11899 ft | 303 kts | 184° |
| 2026-05-01 10:43 | 38.47540 | 58.62814 | 11586 ft | 304 kts | 184° |
| 2026-05-01 10:43 | 38.45419 | 58.62724 | 11068 ft | 304 kts | 183° |
| 2026-05-01 10:44 | 38.43307 | 58.62634 | 10693 ft | 303 kts | 183° |
| 2026-05-01 10:44 | 38.41201 | 58.62544 | 10329 ft | 302 kts | 183° |
| 2026-05-01 10:44 | 38.39128 | 58.62457 | 10164 ft | 293 kts | 183° |
| 2026-05-01 10:44 | 38.37119 | 58.62372 | 10012 ft | 285 kts | 183° |
| 2026-05-01 10:45 | 38.35144 | 58.62288 | 9657 ft | 283 kts | 183° |
| 2026-05-01 10:45 | 38.33182 | 58.62205 | 9335 ft | 281 kts | 183° |
| 2026-05-01 10:45 | 38.31235 | 58.62122 | 9013 ft | 279 kts | 183° |
| 2026-05-01 10:45 | 38.29299 | 58.62040 | 8689 ft | 277 kts | 183° |
| 2026-05-01 10:46 | 38.27380 | 58.61958 | 8395 ft | 274 kts | 182° |
| 2026-05-01 10:46 | 38.25485 | 58.61878 | 8108 ft | 271 kts | 182° |
| 2026-05-01 10:46 | 38.23602 | 58.61798 | 7805 ft | 269 kts | 182° |
| 2026-05-01 10:46 | 38.21734 | 58.61716 | 7500 ft | 268 kts | 182° |
| 2026-05-01 10:47 | 38.19876 | 58.61638 | 7203 ft | 267 kts | 182° |
| 2026-05-01 10:47 | 38.18021 | 58.61561 | 6899 ft | 266 kts | 182° |
| 2026-05-01 10:47 | 38.16177 | 58.61483 | 6589 ft | 265 kts | 182° |
| 2026-05-01 10:47 | 38.14338 | 58.61405 | 6258 ft | 264 kts | 181° |
| 2026-05-01 10:48 | 38.12528 | 58.61330 | 5949 ft | 263 kts | 181° |
| 2026-05-01 10:48 | 38.10731 | 58.61254 | 5659 ft | 252 kts | 181° |
| 2026-05-01 10:48 | 38.09006 | 58.61181 | 5365 ft | 246 kts | 181° |
| 2026-05-01 10:48 | 38.07296 | 58.61109 | 5078 ft | 245 kts | 181° |
| 2026-05-01 10:49 | 38.05613 | 58.61038 | 4787 ft | 237 kts | 181° |
| 2026-05-01 10:49 | 38.03994 | 58.60970 | 4517 ft | 231 kts | 181° |
| 2026-05-01 10:49 | 38.02413 | 58.60903 | 4245 ft | 224 kts | 181° |
| 2026-05-01 10:49 | 38.00862 | 58.60838 | 3996 ft | 222 kts | 181° |
| 2026-05-01 10:50 | 37.99324 | 58.60774 | 3751 ft | 219 kts | 181° |
| 2026-05-01 10:50 | 37.97805 | 58.60710 | 3493 ft | 217 kts | 181° |
| 2026-05-01 10:50 | 37.96813 | 58.60668 | 3319 ft | 215 kts | 181° |
| 2026-05-01 10:50 | 37.95340 | 58.60546 | 3071 ft | 207 kts | 193° |
| 2026-05-01 10:51 | 37.94103 | 58.59721 | 2872 ft | 198 kts | 220° |
| 2026-05-01 10:51 | 37.92989 | 58.58777 | 2753 ft | 191 kts | 207° |
| 2026-05-01 10:51 | 37.92017 | 58.57699 | 2654 ft | 190 kts | 246° |
| 2026-05-01 10:51 | 37.91780 | 58.56069 | 2614 ft | 191 kts | 263° |
| 2026-05-01 10:52 | 37.91531 | 58.54399 | 2561 ft | 194 kts | 257° |
| 2026-05-01 10:52 | 37.91450 | 58.52769 | 2495 ft | 183 kts | 287° |
| 2026-05-01 10:52 | 37.92100 | 58.51469 | 2499 ft | 170 kts | 309° |
| 2026-05-01 10:52 | 37.92791 | 58.50291 | 2488 ft | 163 kts | 305° |
| 2026-05-01 10:53 | 37.93403 | 58.49104 | 2500 ft | 157 kts | 302° |
| 2026-05-01 10:53 | 37.93934 | 58.47955 | 2465 ft | 149 kts | 300° |
| 2026-05-01 10:53 | 37.94450 | 58.46809 | 2237 ft | 151 kts | 300° |
| 2026-05-01 10:53 | 37.94969 | 58.45647 | 2049 ft | 151 kts | 300° |
| 2026-05-01 10:54 | 37.95480 | 58.44493 | 1836 ft | 150 kts | 300° |
| 2026-05-01 10:54 | 37.95989 | 58.43335 | 1640 ft | 151 kts | 300° |
| 2026-05-01 10:54 | 37.96508 | 58.42186 | 1447 ft | 149 kts | 301° |
| 2026-05-01 10:54 | 37.97018 | 58.41068 | 1299 ft | 147 kts | 299° |
| 2026-05-01 10:55 | 37.97522 | 58.39943 | 1053 ft | 146 kts | 298° |
| 2026-05-01 10:55 | 37.98016 | 58.38835 | 827 ft | 143 kts | 297° |
| 2026-05-01 10:55 | 37.98494 | 58.37756 | 689 ft | 140 kts | 298° |
| 2026-05-01 10:55 | 37.98923 | 58.36784 | 680 ft | 105 kts | 299° |
| 2026-05-01 10:56 | 37.99190 | 58.36181 | 680 ft | 52 kts | 299° |
| 2026-05-01 10:56 | 37.99295 | 58.35948 | 679 ft | 22 kts | 299° |
| 2026-05-01 10:56 | 37.99348 | 58.35810 | 680 ft | 13 kts | 287° |
| 2026-05-01 10:56 | 37.99359 | 58.35697 | 678 ft | 12 kts | 272° |
| 2026-05-01 10:57 | 37.99360 | 58.35598 | 677 ft | 11 kts | 270° |
| 2026-05-01 10:57 | 37.99348 | 58.35524 | 679 ft | 8 kts | 242° |
| 2026-05-01 10:57 | 37.99314 | 58.35489 | 678 ft | 6 kts | 202° |
| 2026-05-01 10:57 | 37.99273 | 58.35493 | 679 ft | 6 kts | 156° |
| 2026-05-01 10:58 | 37.99238 | 58.35538 | 677 ft | 9 kts | 123° |
| 2026-05-01 10:58 | 37.99203 | 58.35618 | 679 ft | 12 kts | 119° |
| 2026-05-01 10:58 | 37.99157 | 58.35722 | 677 ft | 15 kts | 119° |
| 2026-05-01 10:58 | 37.99102 | 58.35847 | 679 ft | 17 kts | 119° |
| 2026-05-01 10:59 | 37.99040 | 58.35984 | 677 ft | 18 kts | 120° |
| 2026-05-01 10:59 | 37.98982 | 58.36114 | 678 ft | 15 kts | 119° |
| 2026-05-01 10:59 | 37.98934 | 58.36224 | 678 ft | 14 kts | 119° |
| 2026-05-01 10:59 | 37.98894 | 58.36312 | 677 ft | 9 kts | 119° |
| 2026-05-01 11:00 | 37.98851 | 58.36365 | 681 ft | 9 kts | 165° |
| 2026-05-01 11:00 | 37.98790 | 58.36376 | 681 ft | 9 kts | 158° |
| 2026-05-01 11:00 | 37.98747 | 58.36432 | 681 ft | 9 kts | 123° |
| 2026-05-01 11:00 | 37.98716 | 58.36500 | 678 ft | 9 kts | 120° |
| 2026-05-01 11:01 | 37.98685 | 58.36568 | 676 ft | 9 kts | 120° |
| 2026-05-01 11:01 | 37.98654 | 58.36636 | 677 ft | 9 kts | 119° |
| 2026-05-01 11:01 | 37.98624 | 58.36704 | 678 ft | 9 kts | 119° |
| 2026-05-01 11:01 | 37.98593 | 58.36774 | 678 ft | 9 kts | 119° |
| 2026-05-01 11:02 | 37.98563 | 58.36843 | 680 ft | 9 kts | 119° |
| 2026-05-01 11:02 | 37.98532 | 58.36911 | 680 ft | 9 kts | 120° |
| 2026-05-01 11:02 | 37.98502 | 58.36978 | 679 ft | 9 kts | 119° |
| 2026-05-01 11:02 | 37.98474 | 58.37042 | 676 ft | 6 kts | 119° |
| 2026-05-01 11:03 | 37.98436 | 58.37045 | 676 ft | 6 kts | 207° |
| 2026-05-01 11:03 | 37.98406 | 58.37024 | 677 ft | 4 kts | 210° |
| 2026-05-01 11:03 | 37.98390 | 58.37012 | 678 ft | 2 kts | 209° |
| 2026-05-01 11:03 | 37.98387 | 58.37010 | 678 ft | 0 kts | 209° |